sensor_id;sensor_type;location;lat;lon;timestamp;P1;durP1;ratioP1;P2;durP2;ratioP2
75285;SDS011;63879;46.064;14.532;2023-10-09T07:01:35;3.10;;;2.83;;
75285;SDS011;63879;46.064;14.532;2023-10-09T07:04:03;3.40;;;2.28;;
75285;SDS011;63879;46.064;14.532;2023-10-09T07:06:44;3.22;;;3.03;;
75285;SDS011;63879;46.064;14.532;2023-10-09T07:09:10;2.80;;;2.28;;
75285;SDS011;63879;46.064;14.532;2023-10-09T07:11:37;4.47;;;3.28;;
75285;SDS011;63879;46.064;14.532;2023-10-09T07:14:06;3.25;;;3.10;;
75285;SDS011;63879;46.064;14.532;2023-10-09T07:17:03;3.00;;;2.67;;
75285;SDS011;63879;46.064;14.532;2023-10-09T07:19:41;6.30;;;1.05;;
75285;SDS011;63879;46.064;14.532;2023-10-09T07:22:11;3.08;;;2.90;;
75285;SDS011;63879;46.064;14.532;2023-10-09T07:24:43;2.30;;;2.17;;
75285;SDS011;63879;46.064;14.532;2023-10-09T07:27:12;2.97;;;2.42;;
75285;SDS011;63879;46.064;14.532;2023-10-09T07:29:41;3.10;;;2.90;;
75285;SDS011;63879;46.064;14.532;2023-10-09T07:32:16;2.83;;;2.35;;
75285;SDS011;63879;46.064;14.532;2023-10-09T07:34:52;5.05;;;3.03;;
75285;SDS011;63879;46.064;14.532;2023-10-09T07:37:21;2.25;;;2.15;;
75285;SDS011;63879;46.064;14.532;2023-10-09T07:39:49;3.88;;;2.67;;
75285;SDS011;63879;46.064;14.532;2023-10-09T07:42:24;10.18;;;1.92;;
75285;SDS011;63879;46.064;14.532;2023-10-09T07:45:05;3.58;;;3.42;;
75285;SDS011;63879;46.064;14.532;2023-10-09T07:47:45;2.78;;;2.67;;
75285;SDS011;63879;46.064;14.532;2023-10-09T07:50:37;3.20;;;2.95;;
75285;SDS011;63879;46.064;14.532;2023-10-09T07:53:09;3.13;;;2.92;;
75285;SDS011;63879;46.064;14.532;2023-10-09T07:55:45;3.05;;;2.78;;
75285;SDS011;63879;46.064;14.532;2023-10-09T07:58:22;2.40;;;2.30;;
75285;SDS011;63879;46.064;14.532;2023-10-09T08:00:52;1.70;;;1.63;;
75285;SDS011;63879;46.064;14.532;2023-10-09T08:03:40;2.92;;;2.72;;
75285;SDS011;63879;46.064;14.532;2023-10-09T08:06:12;2.03;;;1.83;;
75285;SDS011;63879;46.064;14.532;2023-10-09T08:08:56;3.13;;;3.03;;
75285;SDS011;63879;46.064;14.532;2023-10-09T08:11:28;2.38;;;2.28;;
75285;SDS011;63879;46.064;14.532;2023-10-09T08:14:14;3.22;;;3.03;;
75285;SDS011;63879;46.064;14.532;2023-10-09T08:16:58;3.40;;;3.20;;
75285;SDS011;63879;46.064;14.532;2023-10-09T08:19:39;3.40;;;2.70;;
75285;SDS011;63879;46.064;14.532;2023-10-09T08:22:25;2.50;;;2.33;;
75285;SDS011;63879;46.064;14.532;2023-10-09T08:24:52;1.55;;;1.45;;
75285;SDS011;63879;46.064;14.532;2023-10-09T08:27:21;2.95;;;0.50;;
75285;SDS011;63879;46.064;14.532;2023-10-09T08:29:59;1.85;;;1.75;;
75285;SDS011;63879;46.064;14.532;2023-10-09T08:32:46;1.88;;;1.73;;
75285;SDS011;63879;46.064;14.532;2023-10-09T08:35:31;2.08;;;1.73;;
75285;SDS011;63879;46.064;14.532;2023-10-09T08:38:02;2.38;;;0.55;;
75285;SDS011;63879;46.064;14.532;2023-10-09T08:40:34;2.65;;;2.50;;
75285;SDS011;63879;46.064;14.532;2023-10-09T08:43:09;3.30;;;3.13;;
75285;SDS011;63879;46.064;14.532;2023-10-09T08:45:38;3.05;;;2.17;;
75285;SDS011;63879;46.064;14.532;2023-10-09T08:48:08;2.03;;;1.92;;
75285;SDS011;63879;46.064;14.532;2023-10-09T08:50:40;3.63;;;2.22;;
75285;SDS011;63879;46.064;14.532;2023-10-09T08:53:07;2.17;;;1.85;;
75285;SDS011;63879;46.064;14.532;2023-10-09T08:55:35;2.13;;;1.98;;
75285;SDS011;63879;46.064;14.532;2023-10-09T08:58:01;1.65;;;1.55;;
75285;SDS011;63879;46.064;14.532;2023-10-09T09:00:30;0.98;;;0.95;;
75285;SDS011;63879;46.064;14.532;2023-10-09T09:05:25;2.90;;;2.20;;
75285;SDS011;63879;46.064;14.532;2023-10-09T09:07:53;2.30;;;2.03;;
75285;SDS011;63879;46.064;14.532;2023-10-09T09:10:27;2.90;;;2.00;;
75285;SDS011;63879;46.064;14.532;2023-10-09T09:13:03;2.58;;;2.38;;
75285;SDS011;63879;46.064;14.532;2023-10-09T09:15:29;2.72;;;2.10;;
75285;SDS011;63879;46.064;14.532;2023-10-09T09:18:05;3.28;;;1.80;;
75285;SDS011;63879;46.064;14.532;2023-10-09T09:20:32;3.03;;;2.55;;
75285;SDS011;63879;46.064;14.532;2023-10-09T09:23:02;1.80;;;1.60;;
75285;SDS011;63879;46.064;14.532;2023-10-09T09:25:40;4.00;;;3.80;;
75285;SDS011;63879;46.064;14.532;2023-10-09T09:28:23;3.63;;;1.73;;
75285;SDS011;63879;46.064;14.532;2023-10-09T09:30:51;1.73;;;1.55;;
75285;SDS011;63879;46.064;14.532;2023-10-09T09:36:08;3.95;;;3.50;;
75285;SDS011;63879;46.064;14.532;2023-10-09T09:38:39;3.33;;;3.17;;
75285;SDS011;63879;46.064;14.532;2023-10-09T09:41:11;3.78;;;3.47;;
75285;SDS011;63879;46.064;14.532;2023-10-09T09:43:38;3.17;;;2.97;;
75285;SDS011;63879;46.064;14.532;2023-10-09T09:46:10;3.85;;;3.65;;
75285;SDS011;63879;46.064;14.532;2023-10-09T09:48:39;1.20;;;1.20;;
75285;SDS011;63879;46.064;14.532;2023-10-09T09:51:09;5.80;;;2.88;;
75285;SDS011;63879;46.064;14.532;2023-10-09T09:53:35;4.40;;;4.00;;
75285;SDS011;63879;46.064;14.532;2023-10-09T09:56:00;8.32;;;3.33;;
75285;SDS011;63879;46.064;14.532;2023-10-09T10:01:03;4.25;;;3.75;;
75285;SDS011;63879;46.064;14.532;2023-10-09T10:03:58;3.33;;;1.75;;
75285;SDS011;63879;46.064;14.532;2023-10-09T10:06:25;3.35;;;3.13;;
75285;SDS011;63879;46.064;14.532;2023-10-09T10:08:51;2.05;;;1.83;;
75285;SDS011;63879;46.064;14.532;2023-10-09T10:14:09;3.45;;;3.15;;
75285;SDS011;63879;46.064;14.532;2023-10-09T10:22:28;2.38;;;2.17;;
75285;SDS011;63879;46.064;14.532;2023-10-09T10:24:55;2.85;;;2.38;;
75285;SDS011;63879;46.064;14.532;2023-10-09T10:35:16;2.95;;;2.58;;
75285;SDS011;63879;46.064;14.532;2023-10-09T10:37:45;3.22;;;2.38;;
75285;SDS011;63879;46.064;14.532;2023-10-09T10:40:25;3.95;;;3.47;;
75285;SDS011;63879;46.064;14.532;2023-10-09T10:43:05;2.38;;;2.08;;
75285;SDS011;63879;46.064;14.532;2023-10-09T10:46:06;3.42;;;3.13;;
75285;SDS011;63879;46.064;14.532;2023-10-09T10:48:51;3.25;;;2.08;;
75285;SDS011;63879;46.064;14.532;2023-10-09T10:51:27;5.20;;;2.15;;
75285;SDS011;63879;46.064;14.532;2023-10-09T10:54:03;4.38;;;2.65;;
75285;SDS011;63879;46.064;14.532;2023-10-09T10:57:12;4.80;;;3.83;;
75285;SDS011;63879;46.064;14.532;2023-10-09T10:59:45;3.50;;;3.20;;
75285;SDS011;63879;46.064;14.532;2023-10-09T11:02:11;4.13;;;3.55;;
75285;SDS011;63879;46.064;14.532;2023-10-09T11:04:37;3.83;;;2.80;;
75285;SDS011;63879;46.064;14.532;2023-10-09T11:07:08;5.40;;;3.00;;
75285;SDS011;63879;46.064;14.532;2023-10-09T11:09:54;3.45;;;3.17;;
75285;SDS011;63879;46.064;14.532;2023-10-09T11:12:43;2.70;;;2.45;;
75285;SDS011;63879;46.064;14.532;2023-10-09T11:15:29;4.65;;;3.40;;
75285;SDS011;63879;46.064;14.532;2023-10-09T11:18:06;4.53;;;4.32;;
75285;SDS011;63879;46.064;14.532;2023-10-09T11:20:36;4.03;;;3.75;;
75285;SDS011;63879;46.064;14.532;2023-10-09T11:23:19;5.25;;;4.03;;
75285;SDS011;63879;46.064;14.532;2023-10-09T11:25:54;5.05;;;3.63;;
75285;SDS011;63879;46.064;14.532;2023-10-09T11:28:32;3.80;;;2.55;;
75285;SDS011;63879;46.064;14.532;2023-10-09T11:31:17;3.13;;;2.88;;
75285;SDS011;63879;46.064;14.532;2023-10-09T11:33:45;3.20;;;2.90;;
75285;SDS011;63879;46.064;14.532;2023-10-09T11:36:13;2.38;;;1.20;;
75285;SDS011;63879;46.064;14.532;2023-10-09T11:38:40;2.10;;;2.00;;
75285;SDS011;63879;46.064;14.532;2023-10-09T11:41:16;3.38;;;3.08;;
75285;SDS011;63879;46.064;14.532;2023-10-09T11:43:50;5.63;;;2.63;;
75285;SDS011;63879;46.064;14.532;2023-10-09T11:46:19;2.92;;;1.88;;
75285;SDS011;63879;46.064;14.532;2023-10-09T11:49:22;3.15;;;2.85;;
75285;SDS011;63879;46.064;14.532;2023-10-09T11:52:04;3.05;;;2.85;;
75285;SDS011;63879;46.064;14.532;2023-10-09T11:54:34;4.63;;;4.07;;
75285;SDS011;63879;46.064;14.532;2023-10-09T11:57:03;3.40;;;3.10;;
75285;SDS011;63879;46.064;14.532;2023-10-09T11:59:29;2.95;;;2.00;;
75285;SDS011;63879;46.064;14.532;2023-10-09T12:02:07;5.65;;;4.00;;
75285;SDS011;63879;46.064;14.532;2023-10-09T12:04:41;3.00;;;2.33;;
75285;SDS011;63879;46.064;14.532;2023-10-09T12:07:07;4.80;;;3.03;;
75285;SDS011;63879;46.064;14.532;2023-10-09T12:09:36;4.68;;;4.38;;
75285;SDS011;63879;46.064;14.532;2023-10-09T12:12:02;4.07;;;3.70;;
75285;SDS011;63879;46.064;14.532;2023-10-09T12:14:29;4.05;;;3.60;;
75285;SDS011;63879;46.064;14.532;2023-10-09T12:16:59;3.03;;;2.38;;
75285;SDS011;63879;46.064;14.532;2023-10-09T12:19:33;7.97;;;2.20;;
75285;SDS011;63879;46.064;14.532;2023-10-09T12:22:00;4.65;;;3.05;;
75285;SDS011;63879;46.064;14.532;2023-10-09T12:24:26;3.25;;;2.95;;
75285;SDS011;63879;46.064;14.532;2023-10-09T12:26:54;4.07;;;3.75;;
75285;SDS011;63879;46.064;14.532;2023-10-09T12:29:19;3.28;;;3.05;;
75285;SDS011;63879;46.064;14.532;2023-10-09T12:31:45;3.92;;;3.63;;
75285;SDS011;63879;46.064;14.532;2023-10-09T12:34:12;17.13;;;5.53;;
75285;SDS011;63879;46.064;14.532;2023-10-09T12:36:45;4.28;;;3.40;;
75285;SDS011;63879;46.064;14.532;2023-10-09T12:39:10;2.83;;;2.10;;
75285;SDS011;63879;46.064;14.532;2023-10-09T12:41:43;3.28;;;3.00;;
75285;SDS011;63879;46.064;14.532;2023-10-09T12:44:09;2.88;;;2.50;;
75285;SDS011;63879;46.064;14.532;2023-10-09T12:46:44;3.28;;;3.00;;
75285;SDS011;63879;46.064;14.532;2023-10-09T12:49:20;4.25;;;1.48;;
75285;SDS011;63879;46.064;14.532;2023-10-09T12:51:52;1.70;;;1.25;;
75285;SDS011;63879;46.064;14.532;2023-10-09T12:54:18;5.18;;;2.88;;
75285;SDS011;63879;46.064;14.532;2023-10-09T12:59:17;1.43;;;1.10;;
75285;SDS011;63879;46.064;14.532;2023-10-09T13:01:44;6.53;;;3.22;;
75285;SDS011;63879;46.064;14.532;2023-10-09T13:04:15;2.40;;;1.45;;
75285;SDS011;63879;46.064;14.532;2023-10-09T13:06:41;4.97;;;1.35;;
75285;SDS011;63879;46.064;14.532;2023-10-09T13:09:11;2.20;;;1.38;;
75285;SDS011;63879;46.064;14.532;2023-10-09T13:11:38;3.17;;;2.88;;
75285;SDS011;63879;46.064;14.532;2023-10-09T13:16:37;3.17;;;2.90;;
75285;SDS011;63879;46.064;14.532;2023-10-09T13:19:02;4.55;;;3.40;;
75285;SDS011;63879;46.064;14.532;2023-10-09T13:21:34;3.88;;;2.97;;
75285;SDS011;63879;46.064;14.532;2023-10-09T13:24:03;5.00;;;1.38;;
75285;SDS011;63879;46.064;14.532;2023-10-09T13:26:28;7.80;;;4.55;;
75285;SDS011;63879;46.064;14.532;2023-10-09T13:28:55;5.25;;;3.53;;
75285;SDS011;63879;46.064;14.532;2023-10-09T13:31:23;5.00;;;4.10;;
75285;SDS011;63879;46.064;14.532;2023-10-09T13:33:53;4.18;;;3.78;;
75285;SDS011;63879;46.064;14.532;2023-10-09T13:36:24;6.47;;;4.10;;
75285;SDS011;63879;46.064;14.532;2023-10-09T13:38:56;4.03;;;1.90;;
75285;SDS011;63879;46.064;14.532;2023-10-09T13:41:22;6.85;;;4.53;;
75285;SDS011;63879;46.064;14.532;2023-10-09T13:43:53;7.20;;;4.45;;
75285;SDS011;63879;46.064;14.532;2023-10-09T13:46:19;3.13;;;2.67;;
75285;SDS011;63879;46.064;14.532;2023-10-09T13:48:44;3.53;;;2.55;;
75285;SDS011;63879;46.064;14.532;2023-10-09T13:51:11;3.78;;;3.13;;
75285;SDS011;63879;46.064;14.532;2023-10-09T13:53:47;5.97;;;2.33;;
75285;SDS011;63879;46.064;14.532;2023-10-09T13:58:47;4.50;;;2.78;;
75285;SDS011;63879;46.064;14.532;2023-10-09T14:01:14;8.57;;;3.60;;
75285;SDS011;63879;46.064;14.532;2023-10-09T14:04:06;4.68;;;3.70;;
75285;SDS011;63879;46.064;14.532;2023-10-09T14:06:32;6.13;;;2.97;;
75285;SDS011;63879;46.064;14.532;2023-10-09T14:09:02;3.85;;;3.30;;
75285;SDS011;63879;46.064;14.532;2023-10-09T14:11:34;8.13;;;3.72;;
75285;SDS011;63879;46.064;14.532;2023-10-09T14:14:03;3.85;;;1.63;;
75285;SDS011;63879;46.064;14.532;2023-10-09T14:16:34;6.97;;;2.05;;
75285;SDS011;63879;46.064;14.532;2023-10-09T14:19:07;4.28;;;3.92;;
75285;SDS011;63879;46.064;14.532;2023-10-09T14:21:38;6.70;;;3.30;;
75285;SDS011;63879;46.064;14.532;2023-10-09T14:24:05;3.22;;;1.70;;
75285;SDS011;63879;46.064;14.532;2023-10-09T14:26:40;4.75;;;1.98;;
75285;SDS011;63879;46.064;14.532;2023-10-09T14:29:06;6.38;;;3.53;;
75285;SDS011;63879;46.064;14.532;2023-10-09T14:31:31;3.43;;;2.53;;
75285;SDS011;63879;46.064;14.532;2023-10-09T14:34:04;4.35;;;3.72;;
75285;SDS011;63879;46.064;14.532;2023-10-09T14:36:30;3.70;;;3.40;;
75285;SDS011;63879;46.064;14.532;2023-10-09T14:38:58;4.80;;;3.92;;
75285;SDS011;63879;46.064;14.532;2023-10-09T14:41:25;6.53;;;3.20;;
75285;SDS011;63879;46.064;14.532;2023-10-09T14:43:52;2.78;;;1.45;;
75285;SDS011;63879;46.064;14.532;2023-10-09T14:46:18;4.25;;;2.08;;
75285;SDS011;63879;46.064;14.532;2023-10-09T14:48:50;4.57;;;1.58;;
75285;SDS011;63879;46.064;14.532;2023-10-09T14:51:18;6.43;;;4.90;;
75285;SDS011;63879;46.064;14.532;2023-10-09T14:53:52;3.92;;;3.55;;
75285;SDS011;63879;46.064;14.532;2023-10-09T14:56:27;4.32;;;2.72;;
75285;SDS011;63879;46.064;14.532;2023-10-09T14:58:59;4.40;;;2.05;;
75285;SDS011;63879;46.064;14.532;2023-10-09T15:01:25;10.18;;;4.53;;
75285;SDS011;63879;46.064;14.532;2023-10-09T15:03:54;5.45;;;5.15;;
75285;SDS011;63879;46.064;14.532;2023-10-09T15:06:22;6.53;;;4.50;;
75285;SDS011;63879;46.064;14.532;2023-10-09T15:08:49;7.18;;;4.43;;
75285;SDS011;63879;46.064;14.532;2023-10-09T15:11:14;5.40;;;4.03;;
75285;SDS011;63879;46.064;14.532;2023-10-09T15:13:40;6.20;;;4.45;;
75285;SDS011;63879;46.064;14.532;2023-10-09T15:16:06;4.85;;;3.85;;
75285;SDS011;63879;46.064;14.532;2023-10-09T15:18:31;4.72;;;3.03;;
75285;SDS011;63879;46.064;14.532;2023-10-09T15:21:02;5.63;;;3.28;;
75285;SDS011;63879;46.064;14.532;2023-10-09T15:23:27;5.32;;;4.82;;
75285;SDS011;63879;46.064;14.532;2023-10-09T15:25:53;9.68;;;5.10;;
75285;SDS011;63879;46.064;14.532;2023-10-09T15:28:19;4.70;;;4.28;;
75285;SDS011;63879;46.064;14.532;2023-10-09T15:30:46;9.48;;;4.22;;
75285;SDS011;63879;46.064;14.532;2023-10-09T15:33:13;6.63;;;4.32;;
75285;SDS011;63879;46.064;14.532;2023-10-09T15:35:41;7.05;;;5.20;;
75285;SDS011;63879;46.064;14.532;2023-10-09T15:38:08;6.90;;;4.72;;
75285;SDS011;63879;46.064;14.532;2023-10-09T15:40:37;6.60;;;4.50;;
75285;SDS011;63879;46.064;14.532;2023-10-09T15:43:04;5.80;;;5.10;;
75285;SDS011;63879;46.064;14.532;2023-10-09T15:45:30;7.45;;;5.28;;
75285;SDS011;63879;46.064;14.532;2023-10-09T15:47:56;8.18;;;4.85;;
75285;SDS011;63879;46.064;14.532;2023-10-09T15:50:24;6.57;;;3.35;;
75285;SDS011;63879;46.064;14.532;2023-10-09T15:52:53;4.25;;;2.42;;
75285;SDS011;63879;46.064;14.532;2023-10-09T15:55:22;5.15;;;4.57;;
75285;SDS011;63879;46.064;14.532;2023-10-09T15:57:50;6.55;;;2.70;;
75285;SDS011;63879;46.064;14.532;2023-10-09T16:00:24;5.03;;;3.80;;
75285;SDS011;63879;46.064;14.532;2023-10-09T16:02:55;5.00;;;2.03;;
75285;SDS011;63879;46.064;14.532;2023-10-09T16:05:21;6.43;;;2.50;;
75285;SDS011;63879;46.064;14.532;2023-10-09T16:07:55;4.82;;;3.53;;
75285;SDS011;63879;46.064;14.532;2023-10-09T16:10:21;4.90;;;3.50;;
75285;SDS011;63879;46.064;14.532;2023-10-09T16:12:47;8.27;;;3.90;;
75285;SDS011;63879;46.064;14.532;2023-10-09T16:15:13;3.28;;;1.83;;
75285;SDS011;63879;46.064;14.532;2023-10-09T16:17:42;3.97;;;3.60;;
75285;SDS011;63879;46.064;14.532;2023-10-09T16:20:08;7.30;;;2.63;;
75285;SDS011;63879;46.064;14.532;2023-10-09T16:22:46;7.10;;;1.92;;
75285;SDS011;63879;46.064;14.532;2023-10-09T16:25:13;3.92;;;3.33;;
75285;SDS011;63879;46.064;14.532;2023-10-09T16:27:42;5.70;;;3.65;;
75285;SDS011;63879;46.064;14.532;2023-10-09T16:30:11;3.70;;;3.40;;
75285;SDS011;63879;46.064;14.532;2023-10-09T16:32:43;6.72;;;4.10;;
75285;SDS011;63879;46.064;14.532;2023-10-09T16:35:10;4.03;;;3.72;;
75285;SDS011;63879;46.064;14.532;2023-10-09T16:37:35;4.28;;;2.80;;
75285;SDS011;63879;46.064;14.532;2023-10-09T16:40:00;5.10;;;3.00;;
75285;SDS011;63879;46.064;14.532;2023-10-09T16:42:31;5.13;;;3.63;;
75285;SDS011;63879;46.064;14.532;2023-10-09T16:45:02;6.47;;;3.80;;
75285;SDS011;63879;46.064;14.532;2023-10-09T16:47:27;3.72;;;3.28;;
75285;SDS011;63879;46.064;14.532;2023-10-09T16:49:55;4.50;;;4.13;;
75285;SDS011;63879;46.064;14.532;2023-10-09T16:52:21;4.25;;;3.30;;
75285;SDS011;63879;46.064;14.532;2023-10-09T16:54:48;4.15;;;2.55;;
75285;SDS011;63879;46.064;14.532;2023-10-09T16:59:41;3.38;;;3.08;;
75285;SDS011;63879;46.064;14.532;2023-10-09T17:02:07;4.97;;;4.53;;
75285;SDS011;63879;46.064;14.532;2023-10-09T17:04:37;5.85;;;4.55;;
75285;SDS011;63879;46.064;14.532;2023-10-09T17:07:04;6.53;;;3.50;;
75285;SDS011;63879;46.064;14.532;2023-10-09T17:09:39;6.60;;;5.47;;
75285;SDS011;63879;46.064;14.532;2023-10-09T17:12:06;9.02;;;6.78;;
75285;SDS011;63879;46.064;14.532;2023-10-09T17:14:32;9.10;;;6.15;;
75285;SDS011;63879;46.064;14.532;2023-10-09T17:16:59;6.82;;;5.07;;
75285;SDS011;63879;46.064;14.532;2023-10-09T17:19:25;10.30;;;8.27;;
75285;SDS011;63879;46.064;14.532;2023-10-09T17:21:51;7.05;;;4.20;;
75285;SDS011;63879;46.064;14.532;2023-10-09T17:24:18;6.85;;;5.93;;
75285;SDS011;63879;46.064;14.532;2023-10-09T17:26:48;8.35;;;6.22;;
75285;SDS011;63879;46.064;14.532;2023-10-09T17:29:16;5.50;;;2.92;;
75285;SDS011;63879;46.064;14.532;2023-10-09T17:31:42;8.20;;;5.07;;
75285;SDS011;63879;46.064;14.532;2023-10-09T17:34:08;6.90;;;5.38;;
75285;SDS011;63879;46.064;14.532;2023-10-09T17:36:34;6.15;;;4.78;;
75285;SDS011;63879;46.064;14.532;2023-10-09T17:39:00;8.82;;;4.15;;
75285;SDS011;63879;46.064;14.532;2023-10-09T17:41:29;6.03;;;3.40;;
75285;SDS011;63879;46.064;14.532;2023-10-09T17:44:00;6.05;;;3.80;;
75285;SDS011;63879;46.064;14.532;2023-10-09T17:46:27;5.53;;;5.00;;
75285;SDS011;63879;46.064;14.532;2023-10-09T17:48:54;11.48;;;4.18;;
75285;SDS011;63879;46.064;14.532;2023-10-09T17:51:21;5.30;;;3.75;;
75285;SDS011;63879;46.064;14.532;2023-10-09T17:53:46;7.18;;;2.95;;
75285;SDS011;63879;46.064;14.532;2023-10-09T17:56:12;7.33;;;4.50;;
75285;SDS011;63879;46.064;14.532;2023-10-09T17:58:37;4.85;;;3.80;;
75285;SDS011;63879;46.064;14.532;2023-10-09T18:01:04;12.40;;;4.10;;
75285;SDS011;63879;46.064;14.532;2023-10-09T18:03:31;4.85;;;4.05;;
75285;SDS011;63879;46.064;14.532;2023-10-09T18:05:57;4.63;;;3.25;;
75285;SDS011;63879;46.064;14.532;2023-10-09T18:08:24;6.70;;;3.47;;
75285;SDS011;63879;46.064;14.532;2023-10-09T18:10:53;4.95;;;3.60;;
75285;SDS011;63879;46.064;14.532;2023-10-09T18:13:23;5.95;;;4.63;;
75285;SDS011;63879;46.064;14.532;2023-10-09T18:15:50;6.53;;;3.53;;
75285;SDS011;63879;46.064;14.532;2023-10-09T18:18:16;5.03;;;2.38;;
75285;SDS011;63879;46.064;14.532;2023-10-09T18:20:45;5.53;;;3.15;;
75285;SDS011;63879;46.064;14.532;2023-10-09T18:23:10;5.65;;;5.07;;
75285;SDS011;63879;46.064;14.532;2023-10-09T18:25:36;7.00;;;4.45;;
75285;SDS011;63879;46.064;14.532;2023-10-09T18:28:03;7.97;;;4.20;;
75285;SDS011;63879;46.064;14.532;2023-10-09T18:30:29;7.57;;;4.50;;
75285;SDS011;63879;46.064;14.532;2023-10-09T18:32:54;5.47;;;3.08;;
75285;SDS011;63879;46.064;14.532;2023-10-09T18:35:24;6.47;;;3.88;;
75285;SDS011;63879;46.064;14.532;2023-10-09T18:37:53;7.50;;;4.45;;
75285;SDS011;63879;46.064;14.532;2023-10-09T18:40:23;5.15;;;4.38;;
75285;SDS011;63879;46.064;14.532;2023-10-09T18:42:53;5.97;;;3.65;;
75285;SDS011;63879;46.064;14.532;2023-10-09T18:45:19;5.20;;;3.28;;
75285;SDS011;63879;46.064;14.532;2023-10-09T18:47:44;8.68;;;3.72;;
75285;SDS011;63879;46.064;14.532;2023-10-09T18:50:10;4.95;;;2.80;;
75285;SDS011;63879;46.064;14.532;2023-10-09T18:52:41;10.60;;;4.95;;
75285;SDS011;63879;46.064;14.532;2023-10-09T18:55:13;5.85;;;3.78;;
75285;SDS011;63879;46.064;14.532;2023-10-09T18:57:38;5.82;;;3.95;;
75285;SDS011;63879;46.064;14.532;2023-10-09T19:00:05;10.70;;;5.22;;
75285;SDS011;63879;46.064;14.532;2023-10-09T19:02:48;5.38;;;4.88;;
75285;SDS011;63879;46.064;14.532;2023-10-09T19:05:16;5.85;;;4.93;;
75285;SDS011;63879;46.064;14.532;2023-10-09T19:07:45;6.70;;;3.65;;
75285;SDS011;63879;46.064;14.532;2023-10-09T19:10:11;6.00;;;4.72;;
75285;SDS011;63879;46.064;14.532;2023-10-09T19:12:40;5.75;;;4.43;;
75285;SDS011;63879;46.064;14.532;2023-10-09T19:15:06;5.32;;;4.53;;
75285;SDS011;63879;46.064;14.532;2023-10-09T19:17:33;5.10;;;4.43;;
75285;SDS011;63879;46.064;14.532;2023-10-09T19:20:04;5.53;;;3.33;;
75285;SDS011;63879;46.064;14.532;2023-10-09T19:22:36;6.90;;;5.00;;
75285;SDS011;63879;46.064;14.532;2023-10-09T19:25:04;8.70;;;3.95;;
75285;SDS011;63879;46.064;14.532;2023-10-09T19:27:49;6.72;;;4.85;;
75285;SDS011;63879;46.064;14.532;2023-10-09T19:30:14;5.75;;;5.18;;
75285;SDS011;63879;46.064;14.532;2023-10-09T19:32:44;5.43;;;4.43;;
75285;SDS011;63879;46.064;14.532;2023-10-09T19:35:09;7.13;;;5.38;;
75285;SDS011;63879;46.064;14.532;2023-10-09T19:37:35;8.15;;;4.97;;
75285;SDS011;63879;46.064;14.532;2023-10-09T19:40:00;7.53;;;5.47;;
75285;SDS011;63879;46.064;14.532;2023-10-09T19:42:32;7.55;;;4.68;;
75285;SDS011;63879;46.064;14.532;2023-10-09T19:45:00;5.57;;;5.07;;
75285;SDS011;63879;46.064;14.532;2023-10-09T19:47:25;9.35;;;5.50;;
75285;SDS011;63879;46.064;14.532;2023-10-09T19:49:50;7.63;;;5.78;;
75285;SDS011;63879;46.064;14.532;2023-10-09T19:52:16;7.75;;;5.18;;
75285;SDS011;63879;46.064;14.532;2023-10-09T19:54:42;5.78;;;4.05;;
75285;SDS011;63879;46.064;14.532;2023-10-09T19:57:08;5.30;;;4.82;;
75285;SDS011;63879;46.064;14.532;2023-10-09T19:59:34;5.35;;;4.40;;
75285;SDS011;63879;46.064;14.532;2023-10-09T20:02:03;8.10;;;4.75;;
75285;SDS011;63879;46.064;14.532;2023-10-09T20:04:29;8.00;;;5.40;;
75285;SDS011;63879;46.064;14.532;2023-10-09T20:06:57;5.32;;;4.15;;
75285;SDS011;63879;46.064;14.532;2023-10-09T20:09:25;11.07;;;5.22;;
75285;SDS011;63879;46.064;14.532;2023-10-09T20:11:52;8.68;;;4.18;;
75285;SDS011;63879;46.064;14.532;2023-10-09T20:14:17;6.28;;;4.93;;
75285;SDS011;63879;46.064;14.532;2023-10-09T20:16:43;7.82;;;6.03;;
75285;SDS011;63879;46.064;14.532;2023-10-09T20:19:10;7.20;;;6.43;;
75285;SDS011;63879;46.064;14.532;2023-10-09T20:21:35;6.55;;;5.55;;
75285;SDS011;63879;46.064;14.532;2023-10-09T20:24:01;9.77;;;5.05;;
75285;SDS011;63879;46.064;14.532;2023-10-09T20:26:27;6.57;;;5.20;;
75285;SDS011;63879;46.064;14.532;2023-10-09T20:28:53;7.55;;;4.10;;
75285;SDS011;63879;46.064;14.532;2023-10-09T20:31:19;5.95;;;4.28;;
75285;SDS011;63879;46.064;14.532;2023-10-09T20:33:45;6.15;;;5.28;;
75285;SDS011;63879;46.064;14.532;2023-10-09T20:36:11;8.80;;;5.03;;
75285;SDS011;63879;46.064;14.532;2023-10-09T20:38:41;6.72;;;5.18;;
75285;SDS011;63879;46.064;14.532;2023-10-09T20:41:09;11.80;;;5.10;;
75285;SDS011;63879;46.064;14.532;2023-10-09T20:43:35;7.75;;;5.82;;
75285;SDS011;63879;46.064;14.532;2023-10-09T20:46:04;5.15;;;3.95;;
75285;SDS011;63879;46.064;14.532;2023-10-09T20:48:30;6.90;;;3.95;;
75285;SDS011;63879;46.064;14.532;2023-10-09T20:50:56;6.22;;;3.88;;
75285;SDS011;63879;46.064;14.532;2023-10-09T20:53:23;5.55;;;5.05;;
75285;SDS011;63879;46.064;14.532;2023-10-09T20:55:50;7.25;;;4.47;;
75285;SDS011;63879;46.064;14.532;2023-10-09T20:58:20;5.53;;;3.92;;
75285;SDS011;63879;46.064;14.532;2023-10-09T21:00:45;5.90;;;5.30;;
75285;SDS011;63879;46.064;14.532;2023-10-09T21:03:11;6.25;;;4.35;;
75285;SDS011;63879;46.064;14.532;2023-10-09T21:05:37;7.22;;;4.47;;
75285;SDS011;63879;46.064;14.532;2023-10-09T21:08:04;5.00;;;3.88;;
75285;SDS011;63879;46.064;14.532;2023-10-09T21:10:30;6.88;;;3.78;;
75285;SDS011;63879;46.064;14.532;2023-10-09T21:12:55;7.38;;;4.15;;
75285;SDS011;63879;46.064;14.532;2023-10-09T21:15:21;5.03;;;3.63;;
75285;SDS011;63879;46.064;14.532;2023-10-09T21:17:47;4.68;;;3.53;;
75285;SDS011;63879;46.064;14.532;2023-10-09T21:20:16;7.38;;;4.45;;
75285;SDS011;63879;46.064;14.532;2023-10-09T21:22:42;5.95;;;4.60;;
75285;SDS011;63879;46.064;14.532;2023-10-09T21:25:08;8.30;;;3.78;;
75285;SDS011;63879;46.064;14.532;2023-10-09T21:27:34;6.35;;;3.50;;
75285;SDS011;63879;46.064;14.532;2023-10-09T21:30:00;5.75;;;3.92;;
75285;SDS011;63879;46.064;14.532;2023-10-09T21:32:27;5.03;;;3.63;;
75285;SDS011;63879;46.064;14.532;2023-10-09T21:34:53;4.70;;;3.23;;
75285;SDS011;63879;46.064;14.532;2023-10-09T21:37:19;5.43;;;3.90;;
75285;SDS011;63879;46.064;14.532;2023-10-09T21:39:45;5.18;;;2.90;;
75285;SDS011;63879;46.064;14.532;2023-10-09T21:42:10;5.95;;;3.15;;
75285;SDS011;63879;46.064;14.532;2023-10-09T21:44:39;6.30;;;4.18;;
75285;SDS011;63879;46.064;14.532;2023-10-09T21:47:04;5.00;;;4.13;;
75285;SDS011;63879;46.064;14.532;2023-10-09T21:49:33;4.57;;;3.17;;
75285;SDS011;63879;46.064;14.532;2023-10-09T21:51:58;4.75;;;4.07;;
75285;SDS011;63879;46.064;14.532;2023-10-09T21:54:24;7.32;;;3.40;;
75285;SDS011;63879;46.064;14.532;2023-10-09T21:56:50;4.75;;;4.07;;
75285;SDS011;63879;46.064;14.532;2023-10-09T21:59:15;6.18;;;4.15;;
